sensor_id;sensor_type;location;lat;lon;timestamp;pressure;altitude;pressure_sealevel;temperature;humidity
163;BME280;3946;48.958;8.284;2023-11-19T00:00:45;100489.81;;;9.80;100.00
163;BME280;3946;48.958;8.284;2023-11-19T00:03:29;100487.41;;;9.77;100.00
163;BME280;3946;48.958;8.284;2023-11-19T00:06:14;100474.88;;;9.86;100.00
163;BME280;3946;48.958;8.284;2023-11-19T00:09:02;100484.28;;;9.87;100.00
163;BME280;3946;48.958;8.284;2023-11-19T00:11:47;100493.72;;;9.88;100.00
163;BME280;3946;48.958;8.284;2023-11-19T00:14:32;100482.16;;;9.93;100.00
163;BME280;3946;48.958;8.284;2023-11-19T00:17:18;100480.97;;;9.99;100.00
163;BME280;3946;48.958;8.284;2023-11-19T00:20:04;100481.53;;;10.04;100.00
163;BME280;3946;48.958;8.284;2023-11-19T00:22:50;100473.56;;;10.07;100.00
163;BME280;3946;48.958;8.284;2023-11-19T00:25:37;100460.53;;;10.08;100.00
163;BME280;3946;48.958;8.284;2023-11-19T00:28:22;100454.19;;;10.14;100.00
163;BME280;3946;48.958;8.284;2023-11-19T00:31:07;100445.66;;;10.12;100.00
163;BME280;3946;48.958;8.284;2023-11-19T00:33:52;100447.34;;;10.13;100.00
163;BME280;3946;48.958;8.284;2023-11-19T00:36:38;100452.09;;;10.21;100.00
163;BME280;3946;48.958;8.284;2023-11-19T00:39:23;100459.78;;;10.22;100.00
163;BME280;3946;48.958;8.284;2023-11-19T00:42:09;100440.91;;;10.20;100.00
163;BME280;3946;48.958;8.284;2023-11-19T00:44:55;100448.47;;;10.23;100.00
163;BME280;3946;48.958;8.284;2023-11-19T00:47:40;100444.03;;;10.25;100.00
163;BME280;3946;48.958;8.284;2023-11-19T00:50:25;100438.75;;;10.27;100.00
163;BME280;3946;48.958;8.284;2023-11-19T00:53:10;100440.88;;;10.34;100.00
163;BME280;3946;48.958;8.284;2023-11-19T00:55:55;100437.56;;;10.32;100.00
163;BME280;3946;48.958;8.284;2023-11-19T00:58:45;100448.75;;;10.33;100.00
163;BME280;3946;48.958;8.284;2023-11-19T01:01:31;100432.19;;;10.35;100.00
163;BME280;3946;48.958;8.284;2023-11-19T01:04:16;100425.16;;;10.37;100.00
163;BME280;3946;48.958;8.284;2023-11-19T01:07:01;100425.59;;;10.44;100.00
163;BME280;3946;48.958;8.284;2023-11-19T01:09:48;100427.19;;;10.46;100.00
163;BME280;3946;48.958;8.284;2023-11-19T01:12:33;100428.94;;;10.46;100.00
163;BME280;3946;48.958;8.284;2023-11-19T01:15:20;100433.09;;;10.48;100.00
163;BME280;3946;48.958;8.284;2023-11-19T01:18:05;100431.25;;;10.50;100.00
163;BME280;3946;48.958;8.284;2023-11-19T01:20:51;100430.50;;;10.48;100.00
163;BME280;3946;48.958;8.284;2023-11-19T01:23:36;100438.09;;;10.51;100.00
163;BME280;3946;48.958;8.284;2023-11-19T01:26:22;100442.97;;;10.56;100.00
163;BME280;3946;48.958;8.284;2023-11-19T01:29:07;100447.53;;;10.52;100.00
163;BME280;3946;48.958;8.284;2023-11-19T01:31:54;100440.19;;;10.59;100.00
163;BME280;3946;48.958;8.284;2023-11-19T01:34:41;100438.63;;;10.57;100.00
163;BME280;3946;48.958;8.284;2023-11-19T01:37:26;100446.50;;;10.55;100.00
163;BME280;3946;48.958;8.284;2023-11-19T01:40:11;100440.38;;;10.56;100.00
163;BME280;3946;48.958;8.284;2023-11-19T01:42:57;100449.44;;;10.63;100.00
163;BME280;3946;48.958;8.284;2023-11-19T01:45:44;100452.03;;;10.63;100.00
163;BME280;3946;48.958;8.284;2023-11-19T01:48:31;100444.25;;;10.63;100.00
163;BME280;3946;48.958;8.284;2023-11-19T01:51:18;100438.06;;;10.66;100.00
163;BME280;3946;48.958;8.284;2023-11-19T01:54:03;100436.22;;;10.68;100.00
163;BME280;3946;48.958;8.284;2023-11-19T01:56:49;100432.78;;;10.67;100.00
163;BME280;3946;48.958;8.284;2023-11-19T01:59:34;100435.28;;;10.69;100.00
163;BME280;3946;48.958;8.284;2023-11-19T02:02:20;100430.09;;;10.69;100.00
163;BME280;3946;48.958;8.284;2023-11-19T02:05:07;100432.47;;;10.72;100.00
163;BME280;3946;48.958;8.284;2023-11-19T02:07:52;100428.25;;;10.71;100.00
163;BME280;3946;48.958;8.284;2023-11-19T02:10:37;100424.91;;;10.69;100.00
163;BME280;3946;48.958;8.284;2023-11-19T02:13:22;100429.38;;;10.67;100.00
163;BME280;3946;48.958;8.284;2023-11-19T02:16:07;100420.34;;;10.72;100.00
163;BME280;3946;48.958;8.284;2023-11-19T02:18:53;100433.03;;;10.77;100.00
163;BME280;3946;48.958;8.284;2023-11-19T02:21:39;100422.38;;;10.81;100.00
163;BME280;3946;48.958;8.284;2023-11-19T02:24:25;100431.56;;;10.73;100.00
163;BME280;3946;48.958;8.284;2023-11-19T02:27:13;100432.84;;;10.80;100.00
163;BME280;3946;48.958;8.284;2023-11-19T02:30:02;100422.09;;;10.72;100.00
163;BME280;3946;48.958;8.284;2023-11-19T02:32:50;100408.97;;;10.75;100.00
163;BME280;3946;48.958;8.284;2023-11-19T02:35:35;100405.16;;;10.80;100.00
163;BME280;3946;48.958;8.284;2023-11-19T02:38:20;100417.38;;;10.78;100.00
163;BME280;3946;48.958;8.284;2023-11-19T02:41:05;100426.19;;;10.76;100.00
163;BME280;3946;48.958;8.284;2023-11-19T02:43:51;100428.31;;;10.83;100.00
163;BME280;3946;48.958;8.284;2023-11-19T02:46:38;100434.88;;;10.75;100.00
163;BME280;3946;48.958;8.284;2023-11-19T02:49:26;100438.03;;;10.80;100.00
163;BME280;3946;48.958;8.284;2023-11-19T02:52:11;100428.59;;;10.79;100.00
163;BME280;3946;48.958;8.284;2023-11-19T02:54:55;100414.41;;;10.84;100.00
163;BME280;3946;48.958;8.284;2023-11-19T02:57:41;100408.69;;;10.79;100.00
163;BME280;3946;48.958;8.284;2023-11-19T03:00:30;100398.03;;;10.84;100.00
163;BME280;3946;48.958;8.284;2023-11-19T03:03:21;100384.53;;;10.79;100.00
163;BME280;3946;48.958;8.284;2023-11-19T03:06:10;100389.41;;;10.83;100.00
163;BME280;3946;48.958;8.284;2023-11-19T03:08:55;100404.78;;;10.86;100.00
163;BME280;3946;48.958;8.284;2023-11-19T03:11:41;100409.31;;;10.83;100.00
163;BME280;3946;48.958;8.284;2023-11-19T03:14:25;100412.34;;;10.90;100.00
163;BME280;3946;48.958;8.284;2023-11-19T03:17:11;100414.94;;;10.90;100.00
163;BME280;3946;48.958;8.284;2023-11-19T03:19:57;100408.22;;;10.87;100.00
163;BME280;3946;48.958;8.284;2023-11-19T03:22:42;100396.78;;;10.90;100.00
163;BME280;3946;48.958;8.284;2023-11-19T03:25:27;100384.38;;;10.95;100.00
163;BME280;3946;48.958;8.284;2023-11-19T03:28:18;100393.16;;;10.92;100.00
163;BME280;3946;48.958;8.284;2023-11-19T03:31:04;100390.91;;;10.88;100.00
163;BME280;3946;48.958;8.284;2023-11-19T03:33:53;100381.88;;;10.93;100.00
163;BME280;3946;48.958;8.284;2023-11-19T03:36:40;100381.28;;;11.02;100.00
163;BME280;3946;48.958;8.284;2023-11-19T03:39:25;100384.91;;;11.00;100.00
163;BME280;3946;48.958;8.284;2023-11-19T03:42:10;100386.38;;;11.04;100.00
163;BME280;3946;48.958;8.284;2023-11-19T03:44:56;100377.66;;;11.05;100.00
163;BME280;3946;48.958;8.284;2023-11-19T03:47:42;100384.72;;;11.03;100.00
163;BME280;3946;48.958;8.284;2023-11-19T03:50:27;100399.75;;;11.10;100.00
163;BME280;3946;48.958;8.284;2023-11-19T03:53:13;100396.63;;;11.05;100.00
163;BME280;3946;48.958;8.284;2023-11-19T03:55:58;100397.81;;;11.14;100.00
163;BME280;3946;48.958;8.284;2023-11-19T03:58:44;100390.97;;;11.13;100.00
163;BME280;3946;48.958;8.284;2023-11-19T04:01:29;100387.72;;;11.09;100.00
163;BME280;3946;48.958;8.284;2023-11-19T04:04:13;100380.88;;;11.08;100.00
163;BME280;3946;48.958;8.284;2023-11-19T04:07:00;100384.19;;;11.10;100.00
163;BME280;3946;48.958;8.284;2023-11-19T04:09:48;100381.41;;;11.13;100.00
163;BME280;3946;48.958;8.284;2023-11-19T04:12:33;100385.66;;;11.14;100.00
163;BME280;3946;48.958;8.284;2023-11-19T04:15:18;100381.41;;;11.13;100.00
163;BME280;3946;48.958;8.284;2023-11-19T04:18:03;100385.66;;;11.14;100.00
163;BME280;3946;48.958;8.284;2023-11-19T04:20:48;100388.25;;;11.14;100.00
163;BME280;3946;48.958;8.284;2023-11-19T04:23:33;100383.81;;;11.16;100.00
163;BME280;3946;48.958;8.284;2023-11-19T04:26:20;100375.72;;;11.21;100.00
163;BME280;3946;48.958;8.284;2023-11-19T04:29:05;100374.28;;;11.17;100.00
163;BME280;3946;48.958;8.284;2023-11-19T04:31:51;100371.06;;;11.26;100.00
163;BME280;3946;48.958;8.284;2023-11-19T04:34:36;100369.50;;;11.23;100.00
163;BME280;3946;48.958;8.284;2023-11-19T04:37:21;100362.88;;;11.32;100.00
163;BME280;3946;48.958;8.284;2023-11-19T04:40:06;100377.50;;;11.33;100.00
163;BME280;3946;48.958;8.284;2023-11-19T04:42:53;100376.25;;;11.39;100.00
163;BME280;3946;48.958;8.284;2023-11-19T04:45:37;100381.69;;;11.36;100.00
163;BME280;3946;48.958;8.284;2023-11-19T04:48:23;100380.50;;;11.40;100.00
163;BME280;3946;48.958;8.284;2023-11-19T04:51:08;100363.41;;;11.50;100.00
163;BME280;3946;48.958;8.284;2023-11-19T04:53:54;100352.50;;;11.57;100.00
163;BME280;3946;48.958;8.284;2023-11-19T04:56:40;100358.63;;;11.56;100.00
163;BME280;3946;48.958;8.284;2023-11-19T04:59:26;100349.81;;;11.59;100.00
163;BME280;3946;48.958;8.284;2023-11-19T05:02:12;100352.59;;;11.56;100.00
163;BME280;3946;48.958;8.284;2023-11-19T05:04:59;100336.44;;;11.65;100.00
163;BME280;3946;48.958;8.284;2023-11-19T05:07:44;100328.53;;;11.67;100.00
163;BME280;3946;48.958;8.284;2023-11-19T05:10:29;100316.28;;;11.69;100.00
163;BME280;3946;48.958;8.284;2023-11-19T05:13:14;100302.25;;;11.71;100.00
163;BME280;3946;48.958;8.284;2023-11-19T05:16:02;100319.09;;;11.78;100.00
163;BME280;3946;48.958;8.284;2023-11-19T05:18:47;100327.72;;;11.79;100.00
163;BME280;3946;48.958;8.284;2023-11-19T05:21:32;100319.09;;;11.78;100.00
163;BME280;3946;48.958;8.284;2023-11-19T05:24:17;100316.91;;;11.85;100.00
163;BME280;3946;48.958;8.284;2023-11-19T05:27:03;100325.41;;;11.87;100.00
163;BME280;3946;48.958;8.284;2023-11-19T05:29:48;100320.13;;;11.88;100.00
163;BME280;3946;48.958;8.284;2023-11-19T05:32:34;100315.72;;;12.02;100.00
163;BME280;3946;48.958;8.284;2023-11-19T05:35:19;100314.19;;;11.99;100.00
163;BME280;3946;48.958;8.284;2023-11-19T05:38:04;100311.03;;;12.07;100.00
163;BME280;3946;48.958;8.284;2023-11-19T05:40:49;100303.97;;;12.09;100.00
163;BME280;3946;48.958;8.284;2023-11-19T05:43:34;100303.16;;;12.08;100.00
163;BME280;3946;48.958;8.284;2023-11-19T05:46:19;100291.59;;;12.12;100.00
163;BME280;3946;48.958;8.284;2023-11-19T05:49:05;100284.19;;;12.19;100.00
163;BME280;3946;48.958;8.284;2023-11-19T05:51:50;100284.44;;;12.16;100.00
163;BME280;3946;48.958;8.284;2023-11-19T05:54:37;100286.19;;;12.15;100.00
163;BME280;3946;48.958;8.284;2023-11-19T05:57:22;100282.66;;;12.16;100.00
163;BME280;3946;48.958;8.284;2023-11-19T06:00:09;100283.59;;;12.15;100.00
163;BME280;3946;48.958;8.284;2023-11-19T06:02:56;100284.53;;;12.14;100.00
163;BME280;3946;48.958;8.284;2023-11-19T06:05:42;100287.84;;;12.16;100.00
163;BME280;3946;48.958;8.284;2023-11-19T06:08:28;100286.94;;;12.17;100.00
163;BME280;3946;48.958;8.284;2023-11-19T06:11:14;100292.13;;;12.17;100.00
163;BME280;3946;48.958;8.284;2023-11-19T06:14:02;100276.03;;;12.12;100.00
163;BME280;3946;48.958;8.284;2023-11-19T06:16:49;100275.50;;;12.07;100.00
163;BME280;3946;48.958;8.284;2023-11-19T06:19:35;100283.50;;;12.04;100.00
163;BME280;3946;48.958;8.284;2023-11-19T06:22:22;100277.38;;;12.05;100.00
163;BME280;3946;48.958;8.284;2023-11-19T06:25:07;100283.13;;;11.98;100.00
163;BME280;3946;48.958;8.284;2023-11-19T06:27:52;100292.69;;;11.97;100.00
163;BME280;3946;48.958;8.284;2023-11-19T06:30:37;100283.19;;;12.09;100.00
163;BME280;3946;48.958;8.284;2023-11-19T06:33:22;100290.22;;;12.19;100.00
163;BME280;3946;48.958;8.284;2023-11-19T06:36:08;100281.56;;;12.32;100.00
163;BME280;3946;48.958;8.284;2023-11-19T06:38:54;100280.28;;;12.37;100.00
163;BME280;3946;48.958;8.284;2023-11-19T06:41:39;100271.53;;;12.38;100.00
163;BME280;3946;48.958;8.284;2023-11-19T06:44:24;100273.81;;;12.43;100.00
163;BME280;3946;48.958;8.284;2023-11-19T06:47:09;100267.56;;;12.45;100.00
163;BME280;3946;48.958;8.284;2023-11-19T06:49:54;100265.91;;;12.44;100.00
163;BME280;3946;48.958;8.284;2023-11-19T06:52:39;100258.84;;;12.46;100.00
163;BME280;3946;48.958;8.284;2023-11-19T06:55:26;100265.44;;;12.50;100.00
163;BME280;3946;48.958;8.284;2023-11-19T06:58:11;100244.41;;;12.42;100.00
163;BME280;3946;48.958;8.284;2023-11-19T07:00:56;100269.94;;;12.48;100.00
163;BME280;3946;48.958;8.284;2023-11-19T07:03:41;100269.16;;;12.59;100.00
163;BME280;3946;48.958;8.284;2023-11-19T07:06:26;100280.06;;;12.64;100.00
163;BME280;3946;48.958;8.284;2023-11-19T07:09:11;100283.38;;;12.66;100.00
163;BME280;3946;48.958;8.284;2023-11-19T07:11:59;100297.41;;;12.64;100.00
163;BME280;3946;48.958;8.284;2023-11-19T07:14:45;100296.69;;;12.61;100.00
163;BME280;3946;48.958;8.284;2023-11-19T07:17:30;100291.72;;;12.58;100.00
163;BME280;3946;48.958;8.284;2023-11-19T07:20:15;100296.47;;;12.65;100.00
163;BME280;3946;48.958;8.284;2023-11-19T07:23:00;100306.16;;;12.63;100.00
163;BME280;3946;48.958;8.284;2023-11-19T07:25:45;100305.69;;;12.69;100.00
163;BME280;3946;48.958;8.284;2023-11-19T07:28:32;100301.09;;;12.72;100.00
163;BME280;3946;48.958;8.284;2023-11-19T07:31:17;100309.84;;;12.71;100.00
163;BME280;3946;48.958;8.284;2023-11-19T07:34:03;100313.50;;;12.69;100.00
163;BME280;3946;48.958;8.284;2023-11-19T07:36:49;100324.59;;;12.71;100.00
163;BME280;3946;48.958;8.284;2023-11-19T07:39:34;100327.31;;;12.69;100.00
163;BME280;3946;48.958;8.284;2023-11-19T07:42:21;100330.31;;;12.76;100.00
163;BME280;3946;48.958;8.284;2023-11-19T07:45:09;100333.53;;;12.79;100.00
163;BME280;3946;48.958;8.284;2023-11-19T07:47:55;100333.88;;;12.86;100.00
163;BME280;3946;48.958;8.284;2023-11-19T07:50:39;100331.28;;;12.86;100.00
163;BME280;3946;48.958;8.284;2023-11-19T07:53:25;100340.41;;;12.91;100.00
163;BME280;3946;48.958;8.284;2023-11-19T07:56:10;100337.94;;;12.90;100.00
163;BME280;3946;48.958;8.284;2023-11-19T07:58:55;100340.50;;;12.79;100.00
163;BME280;3946;48.958;8.284;2023-11-19T08:01:41;100340.66;;;12.65;100.00
163;BME280;3946;48.958;8.284;2023-11-19T08:04:26;100341.88;;;12.72;100.00
163;BME280;3946;48.958;8.284;2023-11-19T08:07:11;100351.09;;;12.76;100.00
163;BME280;3946;48.958;8.284;2023-11-19T08:09:56;100355.97;;;12.80;100.00
163;BME280;3946;48.958;8.284;2023-11-19T08:12:41;100353.03;;;12.85;100.00
163;BME280;3946;48.958;8.284;2023-11-19T08:15:26;100359.06;;;12.85;100.00
163;BME280;3946;48.958;8.284;2023-11-19T08:18:12;100367.78;;;12.84;100.00
163;BME280;3946;48.958;8.284;2023-11-19T08:20:57;100353.97;;;12.84;100.00
163;BME280;3946;48.958;8.284;2023-11-19T08:23:43;100351.75;;;12.90;100.00
163;BME280;3946;48.958;8.284;2023-11-19T08:26:28;100365.69;;;12.89;100.00
163;BME280;3946;48.958;8.284;2023-11-19T08:29:13;100366.97;;;12.84;100.00
163;BME280;3946;48.958;8.284;2023-11-19T08:31:59;100379.31;;;12.93;100.00
163;BME280;3946;48.958;8.284;2023-11-19T08:34:46;100367.50;;;13.00;100.00
163;BME280;3946;48.958;8.284;2023-11-19T08:37:31;100369.06;;;13.03;100.00
163;BME280;3946;48.958;8.284;2023-11-19T08:40:16;100370.38;;;13.08;100.00
163;BME280;3946;48.958;8.284;2023-11-19T08:43:01;100361.47;;;13.00;100.00
163;BME280;3946;48.958;8.284;2023-11-19T08:45:46;100372.38;;;13.05;100.00
163;BME280;3946;48.958;8.284;2023-11-19T08:48:34;100391.31;;;13.07;100.00
163;BME280;3946;48.958;8.284;2023-11-19T08:51:20;100391.00;;;12.87;100.00
163;BME280;3946;48.958;8.284;2023-11-19T08:54:05;100399.94;;;12.83;100.00
163;BME280;3946;48.958;8.284;2023-11-19T08:56:50;100388.97;;;12.80;100.00
163;BME280;3946;48.958;8.284;2023-11-19T08:59:35;100403.84;;;12.78;100.00
163;BME280;3946;48.958;8.284;2023-11-19T09:02:21;100402.44;;;12.85;100.00
163;BME280;3946;48.958;8.284;2023-11-19T09:05:06;100404.56;;;12.80;100.00
163;BME280;3946;48.958;8.284;2023-11-19T09:07:53;100408.25;;;12.88;100.00
163;BME280;3946;48.958;8.284;2023-11-19T09:10:38;100404.16;;;12.97;100.00
163;BME280;3946;48.958;8.284;2023-11-19T09:13:23;100405.59;;;13.71;100.00
163;BME280;3946;48.958;8.284;2023-11-19T09:16:08;100398.88;;;13.80;100.00
163;BME280;3946;48.958;8.284;2023-11-19T09:18:53;100405.59;;;13.71;100.00
163;BME280;3946;48.958;8.284;2023-11-19T09:21:38;100400.28;;;13.95;100.00
163;BME280;3946;48.958;8.284;2023-11-19T09:24:24;100394.44;;;13.58;100.00
163;BME280;3946;48.958;8.284;2023-11-19T09:27:09;100387.97;;;13.63;100.00
163;BME280;3946;48.958;8.284;2023-11-19T09:29:54;100391.13;;;14.56;100.00
163;BME280;3946;48.958;8.284;2023-11-19T09:32:42;100384.47;;;14.95;100.00
163;BME280;3946;48.958;8.284;2023-11-19T09:35:27;100380.34;;;14.61;100.00
163;BME280;3946;48.958;8.284;2023-11-19T09:38:12;100381.91;;;14.19;100.00
163;BME280;3946;48.958;8.284;2023-11-19T09:40:59;100388.44;;;14.02;100.00
163;BME280;3946;48.958;8.284;2023-11-19T09:43:46;100397.34;;;14.11;100.00
163;BME280;3946;48.958;8.284;2023-11-19T09:46:31;100393.91;;;14.10;100.00
163;BME280;3946;48.958;8.284;2023-11-19T09:49:16;100389.75;;;14.08;100.00
163;BME280;3946;48.958;8.284;2023-11-19T09:52:05;100393.06;;;14.10;100.00
163;BME280;3946;48.958;8.284;2023-11-19T09:54:50;100396.13;;;14.15;100.00
163;BME280;3946;48.958;8.284;2023-11-19T09:57:36;100390.44;;;14.21;100.00
163;BME280;3946;48.958;8.284;2023-11-19T10:00:22;100393.97;;;14.31;100.00
163;BME280;3946;48.958;8.284;2023-11-19T10:03:08;100386.91;;;14.44;100.00
163;BME280;3946;48.958;8.284;2023-11-19T10:05:54;100385.56;;;14.50;100.00
163;BME280;3946;48.958;8.284;2023-11-19T10:08:39;100381.78;;;14.54;100.00
163;BME280;3946;48.958;8.284;2023-11-19T10:11:24;100378.88;;;14.68;100.00
163;BME280;3946;48.958;8.284;2023-11-19T10:14:10;100372.53;;;14.61;100.00
163;BME280;3946;48.958;8.284;2023-11-19T10:16:56;100370.66;;;14.41;100.00
163;BME280;3946;48.958;8.284;2023-11-19T10:19:42;100364.13;;;14.46;100.00
163;BME280;3946;48.958;8.284;2023-11-19T10:22:27;100356.47;;;14.77;100.00
163;BME280;3946;48.958;8.284;2023-11-19T10:25:22;100358.69;;;14.81;100.00
163;BME280;3946;48.958;8.284;2023-11-19T10:28:07;100354.88;;;14.85;100.00
163;BME280;3946;48.958;8.284;2023-11-19T10:30:55;100363.56;;;15.07;100.00
163;BME280;3946;48.958;8.284;2023-11-19T10:33:41;100365.88;;;15.21;100.00
163;BME280;3946;48.958;8.284;2023-11-19T10:36:37;100355.59;;;15.29;100.00
163;BME280;3946;48.958;8.284;2023-11-19T10:39:22;100365.53;;;15.14;100.00
163;BME280;3946;48.958;8.284;2023-11-19T10:42:14;100368.78;;;15.27;100.00
163;BME280;3946;48.958;8.284;2023-11-19T10:45:00;100361.03;;;15.37;100.00
163;BME280;3946;48.958;8.284;2023-11-19T10:47:49;100354.28;;;15.14;100.00
163;BME280;3946;48.958;8.284;2023-11-19T10:50:35;100347.69;;;14.98;100.00
163;BME280;3946;48.958;8.284;2023-11-19T10:53:20;100355.66;;;14.97;100.00
163;BME280;3946;48.958;8.284;2023-11-19T10:56:06;100362.81;;;14.84;100.00
163;BME280;3946;48.958;8.284;2023-11-19T10:58:54;100353.34;;;14.83;100.00
163;BME280;3946;48.958;8.284;2023-11-19T11:01:43;100358.25;;;14.97;100.00
163;BME280;3946;48.958;8.284;2023-11-19T11:04:30;100353.09;;;14.86;100.00
163;BME280;3946;48.958;8.284;2023-11-19T11:07:16;100343.19;;;15.00;100.00
163;BME280;3946;48.958;8.284;2023-11-19T11:10:06;100335.00;;;15.26;100.00
163;BME280;3946;48.958;8.284;2023-11-19T11:12:52;100336.84;;;15.56;100.00
163;BME280;3946;48.958;8.284;2023-11-19T11:15:42;100340.78;;;15.81;100.00
163;BME280;3946;48.958;8.284;2023-11-19T11:18:27;100347.06;;;16.08;100.00
163;BME280;3946;48.958;8.284;2023-11-19T11:21:14;100348.22;;;16.16;100.00
163;BME280;3946;48.958;8.284;2023-11-19T11:24:16;100337.31;;;15.70;100.00
163;BME280;3946;48.958;8.284;2023-11-19T11:30:14;100342.56;;;15.29;100.00
163;BME280;3946;48.958;8.284;2023-11-19T11:33:06;100338.19;;;15.09;100.00
163;BME280;3946;48.958;8.284;2023-11-19T11:35:59;100346.31;;;15.15;100.00
163;BME280;3946;48.958;8.284;2023-11-19T11:38:50;100335.13;;;15.24;100.00
163;BME280;3946;48.958;8.284;2023-11-19T11:41:37;100331.81;;;15.22;100.00
163;BME280;3946;48.958;8.284;2023-11-19T11:44:33;100314.78;;;15.28;100.00
163;BME280;3946;48.958;8.284;2023-11-19T11:50:50;100322.25;;;15.12;100.00
163;BME280;3946;48.958;8.284;2023-11-19T11:53:36;100315.44;;;14.99;100.00
163;BME280;3946;48.958;8.284;2023-11-19T11:56:21;100312.84;;;15.20;100.00
163;BME280;3946;48.958;8.284;2023-11-19T11:59:07;100311.50;;;15.26;100.00
163;BME280;3946;48.958;8.284;2023-11-19T12:01:57;100314.16;;;15.35;100.00
163;BME280;3946;48.958;8.284;2023-11-19T12:04:42;100307.78;;;15.49;100.00
163;BME280;3946;48.958;8.284;2023-11-19T12:07:28;100298.66;;;15.64;100.00
163;BME280;3946;48.958;8.284;2023-11-19T12:10:14;100292.84;;;15.61;100.00
163;BME280;3946;48.958;8.284;2023-11-19T12:13:00;100294.34;;;15.84;100.00
163;BME280;3946;48.958;8.284;2023-11-19T12:16:06;100284.34;;;15.99;100.00
163;BME280;3946;48.958;8.284;2023-11-19T12:18:52;100289.00;;;15.95;100.00
163;BME280;3946;48.958;8.284;2023-11-19T12:21:37;100284.84;;;15.93;100.00
163;BME280;3946;48.958;8.284;2023-11-19T12:24:24;100272.09;;;15.99;100.00
163;BME280;3946;48.958;8.284;2023-11-19T12:27:09;100269.78;;;16.25;100.00
163;BME280;3946;48.958;8.284;2023-11-19T12:29:56;100264.69;;;16.04;100.00
163;BME280;3946;48.958;8.284;2023-11-19T12:32:44;100264.66;;;15.95;100.00
163;BME280;3946;48.958;8.284;2023-11-19T12:35:29;100263.81;;;15.94;100.00
163;BME280;3946;48.958;8.284;2023-11-19T12:38:20;100252.41;;;15.95;100.00
163;BME280;3946;48.958;8.284;2023-11-19T12:41:07;100246.09;;;15.98;98.82
163;BME280;3946;48.958;8.284;2023-11-19T12:44:08;100257.09;;;16.01;97.77
163;BME280;3946;48.958;8.284;2023-11-19T12:46:59;100243.47;;;15.98;93.09
163;BME280;3946;48.958;8.284;2023-11-19T12:49:54;100245.53;;;15.94;92.73
163;BME280;3946;48.958;8.284;2023-11-19T12:52:39;100228.88;;;15.95;88.92
163;BME280;3946;48.958;8.284;2023-11-19T12:55:25;100250.78;;;16.04;87.06
163;BME280;3946;48.958;8.284;2023-11-19T12:58:12;100237.59;;;16.05;84.48
163;BME280;3946;48.958;8.284;2023-11-19T13:01:15;100236.19;;;16.11;83.64
163;BME280;3946;48.958;8.284;2023-11-19T13:04:00;100217.38;;;16.46;81.44
163;BME280;3946;48.958;8.284;2023-11-19T13:07:00;100202.38;;;16.38;81.29
163;BME280;3946;48.958;8.284;2023-11-19T13:09:47;100214.19;;;16.42;79.48
163;BME280;3946;48.958;8.284;2023-11-19T13:12:32;100208.84;;;16.54;79.19
163;BME280;3946;48.958;8.284;2023-11-19T13:15:24;100211.31;;;16.45;79.17
163;BME280;3946;48.958;8.284;2023-11-19T13:18:10;100207.59;;;16.38;79.64
163;BME280;3946;48.958;8.284;2023-11-19T13:20:55;100209.81;;;16.33;79.23
163;BME280;3946;48.958;8.284;2023-11-19T13:23:41;100205.41;;;16.05;79.35
163;BME280;3946;48.958;8.284;2023-11-19T13:26:26;100210.84;;;15.92;80.44
163;BME280;3946;48.958;8.284;2023-11-19T13:29:11;100192.59;;;16.02;80.34
163;BME280;3946;48.958;8.284;2023-11-19T13:31:57;100205.09;;;15.98;80.68
163;BME280;3946;48.958;8.284;2023-11-19T13:34:44;100202.09;;;16.03;80.28
163;BME280;3946;48.958;8.284;2023-11-19T13:37:29;100199.75;;;16.00;80.35
163;BME280;3946;48.958;8.284;2023-11-19T13:40:14;100189.84;;;16.03;79.85
163;BME280;3946;48.958;8.284;2023-11-19T13:42:59;100189.56;;;15.97;78.99
163;BME280;3946;48.958;8.284;2023-11-19T13:45:44;100186.63;;;15.71;80.41
163;BME280;3946;48.958;8.284;2023-11-19T13:48:31;100199.59;;;15.42;81.57
163;BME280;3946;48.958;8.284;2023-11-19T13:51:16;100202.66;;;15.26;81.70
163;BME280;3946;48.958;8.284;2023-11-19T13:54:01;100197.31;;;15.28;81.17
163;BME280;3946;48.958;8.284;2023-11-19T13:56:46;100195.53;;;15.28;80.73
163;BME280;3946;48.958;8.284;2023-11-19T13:59:31;100199.41;;;15.34;80.76
163;BME280;3946;48.958;8.284;2023-11-19T14:02:16;100189.09;;;15.32;81.70
163;BME280;3946;48.958;8.284;2023-11-19T14:05:02;100198.00;;;15.30;81.53
163;BME280;3946;48.958;8.284;2023-11-19T14:07:47;100197.28;;;15.18;82.91
163;BME280;3946;48.958;8.284;2023-11-19T14:10:34;100186.72;;;15.20;82.97
163;BME280;3946;48.958;8.284;2023-11-19T14:13:19;100195.63;;;15.17;83.12
163;BME280;3946;48.958;8.284;2023-11-19T14:16:04;100189.59;;;15.17;83.11
163;BME280;3946;48.958;8.284;2023-11-19T14:18:52;100198.00;;;15.30;83.61
163;BME280;3946;48.958;8.284;2023-11-19T14:21:39;100188.59;;;15.48;83.25
163;BME280;3946;48.958;8.284;2023-11-19T14:24:24;100189.88;;;15.54;82.93
163;BME280;3946;48.958;8.284;2023-11-19T14:27:09;100183.34;;;15.69;83.20
163;BME280;3946;48.958;8.284;2023-11-19T14:29:54;100171.38;;;15.76;83.77
163;BME280;3946;48.958;8.284;2023-11-19T14:32:40;100194.06;;;15.75;83.26
163;BME280;3946;48.958;8.284;2023-11-19T14:35:27;100199.00;;;15.69;83.13
163;BME280;3946;48.958;8.284;2023-11-19T14:38:15;100190.69;;;15.54;82.83
163;BME280;3946;48.958;8.284;2023-11-19T14:41:00;100190.38;;;15.38;83.30
163;BME280;3946;48.958;8.284;2023-11-19T14:43:45;100184.56;;;15.25;83.00
163;BME280;3946;48.958;8.284;2023-11-19T14:46:32;100193.41;;;15.13;83.40
163;BME280;3946;48.958;8.284;2023-11-19T14:49:17;100180.59;;;15.00;82.28
163;BME280;3946;48.958;8.284;2023-11-19T14:52:02;100177.03;;;15.01;82.70
163;BME280;3946;48.958;8.284;2023-11-19T14:54:48;100187.59;;;14.99;82.53
163;BME280;3946;48.958;8.284;2023-11-19T14:57:35;100193.25;;;15.04;81.65
163;BME280;3946;48.958;8.284;2023-11-19T15:00:22;100192.41;;;15.04;82.31